createdAt,value
2017-07-14T03:32:40.472Z,3.10
2017-07-14T03:35:08.106Z,2.90
2017-07-14T03:37:35.754Z,2.90
2017-07-14T03:40:03.829Z,3.73
2017-07-14T03:42:31.456Z,3.93
2017-07-14T03:45:00.070Z,3.57
2017-07-14T03:47:28.135Z,4.03
2017-07-14T03:49:56.137Z,3.73
2017-07-14T03:52:23.768Z,4.53
2017-07-14T03:54:51.733Z,4.20
2017-07-14T03:57:19.457Z,3.80
2017-07-14T03:59:47.097Z,4.30
2017-07-14T04:02:15.075Z,3.40
2017-07-14T04:04:42.712Z,3.73
2017-07-14T04:07:10.349Z,2.73
2017-07-14T04:09:38.743Z,4.40
2017-07-14T04:12:06.397Z,3.27
2017-07-14T04:14:34.450Z,3.30
2017-07-14T04:17:02.916Z,4.27
2017-07-14T04:19:30.564Z,3.17
2017-07-14T04:21:58.666Z,3.87
2017-07-14T04:24:26.284Z,3.10
2017-07-14T04:26:53.936Z,10.20
2017-07-14T04:29:22.457Z,4.33
2017-07-14T04:31:50.080Z,2.93
2017-07-14T04:34:17.802Z,3.40
2017-07-14T04:36:45.873Z,4.70
2017-07-14T04:39:13.499Z,3.37
2017-07-14T04:41:41.158Z,3.10
2017-07-14T04:44:09.169Z,3.10
2017-07-14T04:46:36.797Z,3.40
2017-07-14T04:49:04.434Z,3.20
2017-07-14T04:51:32.135Z,3.70
2017-07-14T04:53:59.776Z,4.80
2017-07-14T04:56:27.435Z,2.83
2017-07-14T04:58:55.120Z,3.40
2017-07-14T05:01:22.790Z,3.83
2017-07-14T05:03:51.313Z,3.30
2017-07-14T05:06:19.013Z,3.47
2017-07-14T05:08:46.737Z,3.23
2017-07-14T05:11:14.766Z,3.57
2017-07-14T05:13:43.185Z,3.40
2017-07-14T05:16:10.820Z,3.77
2017-07-14T05:18:39.563Z,3.67
2017-07-14T05:21:07.435Z,3.20
2017-07-14T05:23:35.155Z,4.27
2017-07-14T05:26:03.243Z,3.40
2017-07-14T05:28:30.890Z,5.43
2017-07-14T05:30:58.525Z,3.37
2017-07-14T05:33:27.038Z,3.87
2017-07-14T05:35:54.706Z,3.80
2017-07-14T05:38:22.369Z,3.90
2017-07-14T05:40:49.989Z,4.87
2017-07-14T05:43:18.419Z,3.60
2017-07-14T05:45:46.081Z,4.33
2017-07-14T05:48:14.111Z,3.03
2017-07-14T05:50:42.226Z,3.27
2017-07-14T05:53:09.863Z,5.60
2017-07-14T05:55:37.535Z,3.30
2017-07-14T05:58:05.258Z,3.17
2017-07-14T06:00:33.674Z,3.07
2017-07-14T06:03:01.314Z,5.60
2017-07-14T06:05:28.976Z,3.30
2017-07-14T06:07:56.778Z,3.87
2017-07-14T06:10:24.457Z,3.93
2017-07-14T06:12:52.090Z,15.27
2017-07-14T06:15:20.136Z,3.77
2017-07-14T06:17:47.884Z,4.40
2017-07-14T06:20:16.481Z,3.30
2017-07-14T06:22:44.140Z,3.53
2017-07-14T06:25:11.767Z,4.47
2017-07-14T06:27:39.428Z,4.03
2017-07-14T06:30:07.087Z,5.10
2017-07-14T06:32:35.054Z,3.30
2017-07-14T06:35:02.838Z,4.30
2017-07-14T06:37:30.491Z,4.10
2017-07-14T06:39:58.462Z,3.90
2017-07-14T06:42:26.110Z,3.90
2017-07-14T06:44:53.753Z,3.40
2017-07-14T06:47:21.765Z,4.13
2017-07-14T06:49:50.155Z,5.27
2017-07-14T06:52:18.642Z,3.47
2017-07-14T06:54:46.652Z,3.27
2017-07-14T06:57:14.293Z,3.20
2017-07-14T06:59:41.939Z,4.93
2017-07-14T07:02:09.591Z,8.03
2017-07-14T07:04:37.240Z,4.60
2017-07-14T07:07:04.944Z,4.00
2017-07-14T07:09:32.580Z,4.20
2017-07-14T07:12:00.532Z,3.67
2017-07-14T07:14:28.944Z,3.03
2017-07-14T07:16:56.613Z,4.40
2017-07-14T07:19:24.259Z,4.03
2017-07-14T07:21:51.888Z,3.60
2017-07-14T07:24:19.548Z,4.07
2017-07-14T07:26:47.215Z,3.60
2017-07-14T07:29:14.884Z,6.70
2017-07-14T07:31:43.314Z,10.73
2017-07-14T07:34:11.287Z,7.83
2017-07-14T07:36:38.949Z,4.83
2017-07-14T07:39:06.638Z,4.00
2017-07-14T07:41:34.304Z,3.33
2017-07-14T07:44:01.947Z,6.10
2017-07-14T07:46:35.295Z,3.30
2017-07-14T07:49:08.481Z,3.53
2017-07-14T07:51:36.151Z,3.67
2017-07-14T07:54:03.806Z,6.13
2017-07-14T07:56:31.797Z,4.17
2017-07-14T07:58:59.460Z,4.27
2017-07-14T08:01:27.123Z,6.93
2017-07-14T08:03:54.772Z,5.10
2017-07-14T08:06:22.419Z,3.00
2017-07-14T08:08:50.555Z,7.00
2017-07-14T08:11:18.193Z,3.40
2017-07-14T08:13:45.849Z,3.73
2017-07-14T08:16:13.889Z,2.90
2017-07-14T08:18:41.777Z,5.33
2017-07-14T08:21:09.422Z,2.80
2017-07-14T08:23:37.499Z,3.30
2017-07-14T08:26:05.121Z,3.40
2017-07-14T08:28:32.769Z,2.97
2017-07-14T08:31:00.722Z,5.03
2017-07-14T08:33:28.368Z,2.83
2017-07-14T08:35:56.020Z,6.43
2017-07-14T08:38:24.288Z,3.33
2017-07-14T08:40:51.919Z,3.10
2017-07-14T08:43:20.317Z,3.03
2017-07-14T08:45:48.296Z,4.00
2017-07-14T08:48:15.920Z,4.10
2017-07-14T08:50:43.583Z,3.03
2017-07-14T08:53:11.603Z,4.87
2017-07-14T08:55:39.243Z,3.20
2017-07-14T08:58:06.875Z,4.00
2017-07-14T09:00:34.617Z,3.07
2017-07-14T09:03:02.269Z,3.10
2017-07-14T09:05:29.922Z,8.23
2017-07-14T09:07:57.577Z,4.23
2017-07-14T09:10:25.256Z,3.67
2017-07-14T09:12:52.903Z,4.03
2017-07-14T09:15:20.946Z,6.20
2017-07-14T09:17:48.579Z,6.70
2017-07-14T09:20:16.258Z,4.03
2017-07-14T09:22:44.694Z,3.83
2017-07-14T09:25:12.331Z,3.30
2017-07-14T09:27:40.020Z,2.60
2017-07-14T09:30:07.688Z,7.43
2017-07-14T09:32:35.344Z,2.30
2017-07-14T09:35:03.003Z,2.67
2017-07-14T09:37:30.675Z,2.40
2017-07-14T09:39:58.335Z,4.60
2017-07-14T09:42:26.000Z,2.50
2017-07-14T09:44:53.653Z,2.97
2017-07-14T09:47:21.296Z,2.93
2017-07-14T09:49:48.968Z,3.00
2017-07-14T09:52:16.654Z,3.90
2017-07-14T09:54:44.650Z,3.47
2017-07-14T09:57:12.283Z,3.03
2017-07-14T09:59:40.521Z,1.80
2017-07-14T10:02:08.223Z,2.23
2017-07-14T10:04:35.863Z,1.53
2017-07-14T10:07:03.532Z,3.07
2017-07-14T10:09:31.243Z,1.53
2017-07-14T10:11:58.898Z,2.33
2017-07-14T10:14:26.544Z,1.70
2017-07-14T10:16:54.572Z,1.70
2017-07-14T10:19:22.252Z,2.10
2017-07-14T10:21:49.900Z,1.70
2017-07-14T10:24:17.534Z,2.03
2017-07-14T10:26:45.398Z,4.30
2017-07-14T10:29:13.069Z,2.60
2017-07-14T10:31:40.711Z,2.30
2017-07-14T10:34:09.473Z,1.60
2017-07-14T10:36:37.279Z,2.00
2017-07-14T10:39:04.923Z,2.03
2017-07-14T10:41:32.906Z,1.93
2017-07-14T10:44:00.552Z,3.90
2017-07-14T10:46:28.227Z,1.90
2017-07-14T10:48:56.294Z,2.60
2017-07-14T10:51:24.286Z,3.30
2017-07-14T10:53:51.915Z,1.80
2017-07-14T10:56:20.351Z,1.93
2017-07-14T10:58:48.012Z,2.27
2017-07-14T11:01:16.027Z,2.60
2017-07-14T11:03:44.445Z,2.57
2017-07-14T11:06:12.106Z,2.77
2017-07-14T11:08:39.772Z,2.33
2017-07-14T11:11:07.422Z,2.80
2017-07-14T11:13:35.198Z,2.23
2017-07-14T11:16:02.859Z,3.07
2017-07-14T11:18:30.601Z,2.27
2017-07-14T11:20:59.550Z,5.97
2017-07-14T11:23:28.384Z,1.83
2017-07-14T11:25:56.345Z,2.13
2017-07-14T11:28:24.095Z,2.53
2017-07-14T11:30:51.802Z,2.57
2017-07-14T11:33:19.465Z,2.63
2017-07-14T11:35:47.213Z,3.17
2017-07-14T11:38:14.872Z,2.20
2017-07-14T11:40:42.919Z,5.97
2017-07-14T11:43:11.358Z,2.33
2017-07-14T11:45:39.150Z,2.60
2017-07-14T11:48:07.961Z,3.10
2017-07-14T11:50:35.633Z,3.50
2017-07-14T11:53:03.290Z,3.43
2017-07-14T11:55:31.345Z,4.20
2017-07-14T11:57:59.740Z,5.90
2017-07-14T12:00:27.443Z,3.50
2017-07-14T12:02:55.688Z,3.30
2017-07-14T12:05:23.332Z,3.30
2017-07-14T12:07:51.731Z,3.90
2017-07-14T12:10:19.736Z,3.13
2017-07-14T12:12:47.458Z,4.63
2017-07-14T12:15:15.099Z,3.80
2017-07-14T12:17:43.439Z,7.00
2017-07-14T12:20:11.120Z,2.93
2017-07-14T12:22:38.768Z,3.10
2017-07-14T12:25:06.768Z,2.93
2017-07-14T12:27:35.190Z,3.00
2017-07-14T12:30:02.837Z,2.90
2017-07-14T12:32:30.540Z,2.80
2017-07-14T12:34:58.196Z,3.03
2017-07-14T12:37:25.885Z,8.70
2017-07-14T12:39:53.524Z,2.60
2017-07-14T12:42:21.189Z,4.00
2017-07-14T12:44:48.827Z,4.63
2017-07-14T12:47:16.484Z,2.57
2017-07-14T12:49:44.168Z,3.63
2017-07-14T12:52:12.173Z,2.17
2017-07-14T12:54:40.705Z,3.47
2017-07-14T12:57:08.346Z,7.80
2017-07-14T12:59:36.027Z,2.37
2017-07-14T13:02:03.685Z,2.27
2017-07-14T13:04:31.339Z,2.37
2017-07-14T13:07:13.153Z,2.43
2017-07-14T13:09:40.817Z,5.97
2017-07-14T13:12:08.462Z,8.00
2017-07-14T13:14:37.623Z,2.83
2017-07-14T13:17:05.284Z,2.30
2017-07-14T13:19:33.873Z,4.53
2017-07-14T13:22:02.602Z,3.30
2017-07-14T13:24:30.247Z,10.10
2017-07-14T13:26:58.122Z,2.37
2017-07-14T13:29:26.255Z,2.10
2017-07-14T13:31:54.676Z,5.80
2017-07-14T13:34:22.317Z,2.40
2017-07-14T13:36:50.313Z,2.27
2017-07-14T13:39:17.945Z,5.43
2017-07-14T13:41:45.584Z,1.97
2017-07-14T13:44:14.376Z,2.30
2017-07-14T13:46:42.797Z,1.80
2017-07-14T13:49:10.462Z,2.03
2017-07-14T13:51:38.519Z,2.90
2017-07-14T13:54:06.166Z,3.40
2017-07-14T13:56:33.839Z,3.00
2017-07-14T13:59:04.048Z,3.07
2017-07-14T14:01:31.719Z,2.70
2017-07-14T14:03:59.540Z,3.53
2017-07-14T14:06:27.386Z,4.27
2017-07-14T14:08:55.070Z,2.73
2017-07-14T14:11:22.827Z,4.60
2017-07-14T14:13:50.498Z,3.20
2017-07-14T14:16:18.235Z,2.70
2017-07-14T14:18:46.443Z,2.70
2017-07-14T14:21:14.131Z,2.33
2017-07-14T14:23:41.782Z,2.63
2017-07-14T14:26:09.791Z,2.23
2017-07-14T14:28:37.465Z,2.30
2017-07-14T14:31:05.113Z,2.10
2017-07-14T14:33:33.263Z,2.10
2017-07-14T14:36:00.917Z,6.10
2017-07-14T14:38:28.560Z,2.60
2017-07-14T14:40:57.316Z,3.73
2017-07-14T14:43:25.039Z,4.30
2017-07-14T14:45:52.703Z,3.00
2017-07-14T14:48:20.853Z,3.07
2017-07-14T14:50:48.515Z,3.00
2017-07-14T14:53:16.147Z,4.00
2017-07-14T14:55:43.814Z,4.40
2017-07-14T14:58:11.446Z,3.80
2017-07-14T15:00:39.121Z,2.80
2017-07-14T15:03:06.801Z,3.03
2017-07-14T15:05:34.474Z,4.13
2017-07-14T15:08:02.870Z,3.23
2017-07-14T15:10:31.698Z,5.00
2017-07-14T15:12:59.375Z,3.00
2017-07-14T15:15:27.091Z,3.00
2017-07-14T15:17:54.786Z,2.90
2017-07-14T15:20:22.458Z,3.70
2017-07-14T15:22:50.121Z,4.47
2017-07-14T15:25:17.813Z,4.40
2017-07-14T15:27:45.566Z,3.13
2017-07-14T15:30:13.236Z,2.70
2017-07-14T15:32:41.245Z,4.30
2017-07-14T15:35:09.420Z,4.40
2017-07-14T15:37:37.099Z,3.63
2017-07-14T15:40:05.861Z,3.23
2017-07-14T15:42:33.655Z,4.27
2017-07-14T15:45:01.395Z,3.33
2017-07-14T15:47:29.370Z,4.17
2017-07-14T15:49:57.036Z,3.73
2017-07-14T15:52:24.676Z,5.30
2017-07-14T15:54:53.137Z,4.23
2017-07-14T15:57:20.771Z,3.50
2017-07-14T15:59:48.781Z,3.57
2017-07-14T16:02:17.206Z,3.90
2017-07-14T16:04:44.890Z,5.13
2017-07-14T16:07:12.558Z,3.30
2017-07-14T16:09:40.227Z,3.40
2017-07-14T16:12:07.889Z,3.50
2017-07-14T16:14:35.573Z,4.60
2017-07-14T16:17:04.882Z,2.90
2017-07-14T16:19:32.595Z,3.87
2017-07-14T16:22:00.276Z,5.70
2017-07-14T16:24:27.939Z,4.93
2017-07-14T16:26:55.923Z,130.50
2017-07-14T16:29:24.362Z,110.30
2017-07-14T16:31:52.038Z,78.40
2017-07-14T16:34:19.703Z,62.87
2017-07-14T16:36:47.388Z,90.33
2017-07-14T16:39:15.846Z,92.77
2017-07-14T16:41:43.496Z,66.80
2017-07-14T16:44:11.522Z,12.80
2017-07-14T16:46:39.172Z,15.93
2017-07-14T16:49:07.611Z,3.83
2017-07-14T16:51:35.759Z,3.47
2017-07-14T16:54:03.529Z,9.63
2017-07-14T16:56:31.197Z,2.30
2017-07-14T16:58:58.948Z,2.37
2017-07-14T17:01:26.665Z,2.10
2017-07-14T17:03:54.324Z,3.07
2017-07-14T17:06:23.489Z,2.17
2017-07-14T17:08:51.229Z,4.20
2017-07-14T17:11:18.851Z,2.47
2017-07-14T17:13:47.305Z,3.43
2017-07-14T17:16:14.966Z,2.23
2017-07-14T17:18:42.643Z,2.00
2017-07-14T17:21:10.416Z,3.17
2017-07-14T17:23:39.315Z,3.27
2017-07-14T17:26:08.350Z,2.20
2017-07-14T17:28:36.031Z,2.47
2017-07-14T17:31:04.183Z,3.37
2017-07-14T17:33:31.838Z,5.90
2017-07-14T17:35:59.585Z,2.90
2017-07-14T17:38:27.796Z,2.40
2017-07-14T17:40:55.453Z,3.00
2017-07-14T17:43:23.123Z,2.80
2017-07-14T17:45:51.686Z,2.80
2017-07-14T17:48:19.342Z,2.33
2017-07-14T17:50:47.165Z,7.47
2017-07-14T17:53:15.190Z,4.80
2017-07-14T17:55:42.862Z,4.33
2017-07-14T17:58:10.539Z,2.33
2017-07-14T18:00:38.542Z,2.60
2017-07-14T18:03:06.991Z,2.40
2017-07-14T18:05:34.650Z,1.73
2017-07-14T18:08:02.795Z,2.33
2017-07-14T18:10:35.277Z,2.50
2017-07-14T18:13:03.402Z,2.40
2017-07-14T18:15:31.836Z,7.20
2017-07-14T18:17:59.513Z,4.83
2017-07-14T18:20:27.193Z,4.33
2017-07-14T18:22:54.835Z,3.07
2017-07-14T18:25:22.904Z,3.00
2017-07-14T18:27:50.565Z,2.70
2017-07-14T18:30:18.283Z,2.43
2017-07-14T18:32:46.359Z,3.27
2017-07-14T18:35:14.078Z,4.40
2017-07-14T18:37:41.759Z,4.30
2017-07-14T18:40:10.580Z,3.30
2017-07-14T18:42:39.226Z,6.13
2017-07-14T18:45:06.923Z,4.43
2017-07-14T18:47:34.933Z,5.80
2017-07-14T18:50:02.602Z,3.13
2017-07-14T18:52:30.264Z,5.93
2017-07-14T18:54:58.341Z,5.93
2017-07-14T18:57:26.000Z,4.97
2017-07-14T18:59:53.668Z,4.17
2017-07-14T19:02:21.818Z,3.20
2017-07-14T19:04:49.517Z,3.17
2017-07-14T19:07:17.756Z,3.43
2017-07-14T19:09:46.192Z,3.70
2017-07-14T19:12:14.557Z,3.13
2017-07-14T19:14:42.992Z,4.60
2017-07-14T19:17:10.673Z,6.50
2017-07-14T19:19:38.358Z,4.17
2017-07-14T19:22:06.795Z,3.97
2017-07-14T19:24:34.788Z,6.93
2017-07-14T19:27:02.461Z,5.77
2017-07-14T19:29:30.160Z,4.50
2017-07-14T19:31:58.552Z,4.37
2017-07-14T19:34:26.210Z,4.17
2017-07-14T19:36:53.906Z,7.00
2017-07-14T19:39:21.576Z,3.60
2017-07-14T19:41:49.271Z,4.27
2017-07-14T19:44:17.895Z,5.30
2017-07-14T19:46:45.947Z,7.00
2017-07-14T19:49:13.606Z,7.67
2017-07-14T19:51:43.050Z,4.10
2017-07-14T19:54:10.720Z,3.90
2017-07-14T19:56:38.375Z,8.67
2017-07-14T19:59:06.278Z,5.80
2017-07-14T20:01:34.919Z,5.70
2017-07-14T20:04:02.594Z,7.57
2017-07-14T20:06:30.259Z,7.03
2017-07-14T20:08:58.295Z,7.97
2017-07-14T20:11:25.974Z,3.30
2017-07-14T20:13:53.658Z,3.30
2017-07-14T20:16:21.330Z,3.40
2017-07-14T20:18:49.015Z,3.23
2017-07-14T20:21:18.730Z,4.17
2017-07-14T20:23:48.896Z,4.05
2017-07-14T20:26:16.773Z,3.50
2017-07-14T20:28:44.416Z,5.00
2017-07-14T20:31:12.109Z,3.83
2017-07-14T20:33:39.855Z,3.80
2017-07-14T20:36:07.569Z,3.80
2017-07-14T20:38:36.365Z,5.80
2017-07-14T20:41:03.993Z,3.40
2017-07-14T20:43:31.662Z,3.50
2017-07-14T20:46:00.870Z,8.03
2017-07-14T20:48:29.293Z,6.07
2017-07-14T20:50:56.970Z,5.33
2017-07-14T20:53:24.953Z,4.20
2017-07-14T20:55:52.903Z,4.07
2017-07-14T20:58:20.583Z,6.50
2017-07-14T21:00:48.557Z,4.17
2017-07-14T21:03:16.213Z,6.10
2017-07-14T21:05:43.909Z,3.80
2017-07-14T21:08:12.349Z,3.83
2017-07-14T21:10:39.989Z,4.00
2017-07-14T21:13:07.666Z,4.53
2017-07-14T21:15:35.301Z,4.37
2017-07-14T21:18:02.960Z,5.10
2017-07-14T21:20:30.657Z,4.17
2017-07-14T21:22:58.670Z,4.07
2017-07-14T21:25:27.096Z,5.30
2017-07-14T21:27:54.755Z,4.47
2017-07-14T21:30:22.430Z,4.40
2017-07-14T21:32:50.088Z,4.70
2017-07-14T21:35:17.739Z,3.87
2017-07-14T21:37:45.379Z,4.67
2017-07-14T21:40:13.055Z,4.17
2017-07-14T21:42:40.717Z,4.30
2017-07-14T21:45:08.693Z,3.50
2017-07-14T21:47:36.344Z,4.07
2017-07-14T21:50:04.389Z,4.33
2017-07-14T21:52:32.082Z,4.03
2017-07-14T21:54:59.721Z,4.27
2017-07-14T21:57:27.415Z,4.10
2017-07-14T21:59:55.066Z,4.30
2017-07-14T22:02:22.967Z,5.40
2017-07-14T22:04:50.626Z,4.57
2017-07-14T22:07:18.301Z,4.53
2017-07-14T22:09:45.961Z,5.07
2017-07-14T22:12:13.613Z,5.23
2017-07-14T22:14:41.265Z,6.60
2017-07-14T22:17:09.282Z,5.17
2017-07-14T22:19:36.935Z,9.27
2017-07-14T22:22:05.700Z,7.50
2017-07-14T22:24:33.647Z,5.03
2017-07-14T22:27:01.297Z,6.13
2017-07-14T22:29:28.968Z,5.60
